Time;durP1;ratioP1;P1;durP2;ratioP2;P2;SDS_P1;SDS_P2;PMS_P1;PMS_P2;Temp;Humidity;BMP_temperature;BMP_pressure;BME280_temperature;BME280_humidity;BME280_pressure;Samples;Min_cycle;Max_cycle;Signal;HPM_P1;HPM_P2
2021/07/22 00:00:51;;;;;;;8.67;7.77;;;19.00;99.90;;;;;;5082767;28;20497;-64
2021/07/22 00:03:18;;;;;;;8.97;7.73;;;19.10;99.90;;;;;;5095832;28;20416;-63
2021/07/22 00:05:46;;;;;;;7.47;6.63;;;19.00;99.90;;;;;;5099392;28;20443;-63
2021/07/22 00:08:13;;;;;;;9.00;6.67;;;19.00;99.90;;;;;;5078679;28;20435;-62
2021/07/22 00:10:42;;;;;;;6.87;6.07;;;19.00;99.90;;;;;;5081182;28;20445;-62
2021/07/22 00:13:11;;;;;;;7.80;7.10;;;18.90;99.90;;;;;;5097351;28;20493;-63
2021/07/22 00:15:38;;;;;;;7.73;6.93;;;19.10;99.90;;;;;;5098654;28;20578;-63
2021/07/22 00:18:05;;;;;;;7.20;6.40;;;18.90;99.90;;;;;;5098438;28;20452;-63
2021/07/22 00:20:32;;;;;;;12.67;7.00;;;19.00;99.90;;;;;;5098205;28;20520;-64
2021/07/22 00:22:59;;;;;;;9.50;6.57;;;18.80;99.90;;;;;;5098292;28;20508;-63
2021/07/22 00:25:26;;;;;;;7.50;5.80;;;18.80;99.90;;;;;;5098242;28;20439;-64
2021/07/22 00:27:53;;;;;;;7.00;6.30;;;18.80;99.90;;;;;;5088363;28;20422;-63
2021/07/22 00:30:20;;;;;;;7.70;7.00;;;18.90;99.90;;;;;;5095330;28;20409;-62
2021/07/22 00:32:47;;;;;;;9.00;7.50;;;19.20;99.90;;;;;;5091651;28;20493;-62
2021/07/22 00:35:14;;;;;;;9.20;7.47;;;19.20;99.90;;;;;;5093453;28;20759;-63
2021/07/22 00:37:41;;;;;;;7.93;7.03;;;18.80;99.90;;;;;;5086388;28;20456;-62
2021/07/22 00:40:08;;;;;;;10.20;7.07;;;18.70;99.90;;;;;;5096791;28;20627;-63
2021/07/22 00:42:59;;;;;;;8.47;6.43;;;18.60;99.90;;;;;;5096198;28;20449;-62
2021/07/22 00:45:27;;;;;;;9.63;6.80;;;18.70;99.90;;;;;;5110572;28;20427;-62
2021/07/22 00:47:56;;;;;;;9.93;7.13;;;18.60;99.90;;;;;;5115176;28;20447;-63
2021/07/22 00:50:23;;;;;;;7.60;6.43;;;18.60;99.90;;;;;;5098032;28;20414;-62
2021/07/22 00:52:50;;;;;;;10.57;8.27;;;18.80;99.90;;;;;;5095795;28;20445;-63
2021/07/22 00:55:18;;;;;;;9.53;7.20;;;18.80;99.90;;;;;;5106635;28;20475;-62
2021/07/22 00:57:46;;;;;;;11.20;7.80;;;18.80;99.90;;;;;;5093971;28;20737;-63
2021/07/22 01:00:13;;;;;;;9.07;8.00;;;18.90;99.90;;;;;;5087379;28;20471;-62
2021/07/22 01:02:40;;;;;;;9.40;7.43;;;18.80;99.90;;;;;;5097948;28;20443;-62
2021/07/22 01:05:07;;;;;;;10.00;7.43;;;18.90;99.90;;;;;;5097855;28;20451;-62
2021/07/22 01:07:35;;;;;;;7.53;6.80;;;18.90;99.90;;;;;;5097634;28;20417;-63
2021/07/22 01:10:02;;;;;;;8.17;7.20;;;19.00;99.90;;;;;;5097733;28;20492;-62
2021/07/22 01:12:29;;;;;;;13.67;7.80;;;19.00;99.90;;;;;;5097971;28;20572;-63
2021/07/22 01:14:56;;;;;;;11.43;6.77;;;18.80;99.90;;;;;;5097234;28;20431;-63
2021/07/22 01:17:43;;;;;;;9.93;7.80;;;18.70;99.90;;;;;;5097566;28;20461;-62
2021/07/22 01:20:18;;;;;;;8.53;7.07;;;18.60;99.90;;;;;;5093633;28;20656;-62
2021/07/22 01:22:46;;;;;;;8.23;7.10;;;18.40;99.90;;;;;;5097625;28;20504;-63
2021/07/22 01:25:15;;;;;;;8.77;7.60;;;18.50;99.90;;;;;;5097212;28;20474;-63
2021/07/22 01:27:43;;;;;;;9.07;7.03;;;18.40;99.90;;;;;;5086138;28;20742;-63
2021/07/22 01:30:10;;;;;;;12.30;7.93;;;18.40;99.90;;;;;;5092945;28;20762;-63
2021/07/22 01:32:38;;;;;;;8.53;6.57;;;18.30;99.90;;;;;;5097162;28;20488;-63
2021/07/22 01:35:06;;;;;;;19.13;8.60;;;18.30;99.90;;;;;;5101671;28;20448;-62
2021/07/22 01:37:34;;;;;;;10.23;8.47;;;18.40;99.90;;;;;;5096115;28;20454;-63
2021/07/22 01:40:02;;;;;;;13.80;8.07;;;18.50;99.90;;;;;;5097727;28;20633;-64
2021/07/22 01:42:30;;;;;;;11.60;8.00;;;18.50;99.90;;;;;;5096896;28;20501;-64
2021/07/22 01:44:58;;;;;;;8.90;8.00;;;18.50;99.90;;;;;;5097441;28;20449;-62
2021/07/22 01:47:25;;;;;;;9.63;8.00;;;18.40;99.90;;;;;;5091299;28;20454;-62
2021/07/22 01:49:52;;;;;;;9.80;7.30;;;18.30;99.90;;;;;;5095988;28;20796;-62
2021/07/22 01:52:20;;;;;;;10.93;7.30;;;18.30;99.90;;;;;;5096602;28;20643;-62
2021/07/22 01:54:47;;;;;;;11.70;7.53;;;18.30;99.90;;;;;;5097025;28;20416;-62
2021/07/22 01:57:13;;;;;;;10.10;8.47;;;18.20;99.90;;;;;;5096844;28;20640;-63
2021/07/22 01:59:41;;;;;;;10.37;8.10;;;18.40;99.90;;;;;;5108643;28;20473;-62
2021/07/22 02:02:09;;;;;;;12.93;8.47;;;18.40;99.90;;;;;;5088807;28;20444;-63
2021/07/22 02:04:39;;;;;;;11.60;7.03;;;18.50;99.90;;;;;;5095768;28;20442;-63
2021/07/22 02:07:06;;;;;;;10.47;8.23;;;18.40;99.90;;;;;;5100331;28;20435;-64
2021/07/22 02:09:33;;;;;;;9.83;8.43;;;18.30;99.90;;;;;;5096655;28;20416;-63
2021/07/22 02:12:01;;;;;;;13.20;7.57;;;18.50;99.90;;;;;;5087256;28;20444;-63
2021/07/22 02:14:28;;;;;;;9.87;7.73;;;18.60;99.90;;;;;;5091928;28;20438;-63
2021/07/22 02:16:55;;;;;;;10.90;7.30;;;18.70;99.90;;;;;;5096204;28;20823;-63
2021/07/22 02:19:22;;;;;;;12.20;8.70;;;18.60;99.90;;;;;;5087968;28;20454;-63
2021/07/22 02:21:49;;;;;;;9.37;8.00;;;18.60;99.90;;;;;;5096639;28;20418;-62
2021/07/22 02:24:16;;;;;;;10.90;8.37;;;18.60;99.90;;;;;;5096893;28;20596;-63
2021/07/22 02:26:43;;;;;;;9.60;7.70;;;18.50;99.90;;;;;;5091675;28;20488;-64
2021/07/22 02:29:10;;;;;;;10.27;6.83;;;18.30;99.90;;;;;;5096252;28;20441;-64
2021/07/22 02:31:37;;;;;;;9.97;7.80;;;18.30;99.90;;;;;;5096717;28;20439;-64
2021/07/22 02:34:05;;;;;;;9.07;7.53;;;18.30;99.90;;;;;;5095744;28;20442;-63
2021/07/22 02:36:33;;;;;;;12.43;7.77;;;18.30;99.90;;;;;;5095596;28;20443;-63
2021/07/22 02:39:00;;;;;;;13.00;9.60;;;18.40;99.90;;;;;;5095787;28;20495;-63
2021/07/22 02:41:29;;;;;;;17.23;7.97;;;18.50;99.90;;;;;;5096166;28;20759;-63
2021/07/22 02:43:57;;;;;;;11.20;7.57;;;18.50;99.90;;;;;;5088293;28;20506;-64
2021/07/22 02:46:24;;;;;;;9.63;7.90;;;18.50;99.90;;;;;;5082262;28;20424;-64
2021/07/22 02:48:56;;;;;;;7.50;6.70;;;18.70;99.90;;;;;;5100388;28;20706;-63
2021/07/22 02:51:23;;;;;;;10.43;7.67;;;18.70;99.90;;;;;;5100136;28;20534;-63
2021/07/22 02:53:50;;;;;;;13.87;9.27;;;18.70;99.90;;;;;;5099984;28;20447;-63
2021/07/22 02:56:17;;;;;;;10.27;8.50;;;18.70;99.90;;;;;;5099624;28;20439;-62
2021/07/22 02:58:44;;;;;;;8.50;6.83;;;18.70;99.90;;;;;;5099876;28;20511;-63
2021/07/22 03:01:11;;;;;;;9.90;8.70;;;18.80;99.90;;;;;;5097679;28;20483;-64
2021/07/22 03:03:38;;;;;;;8.83;7.90;;;18.80;99.90;;;;;;5099803;28;20715;-63
2021/07/22 03:06:05;;;;;;;9.13;8.23;;;18.90;99.90;;;;;;5081346;28;20442;-63
2021/07/22 03:08:35;;;;;;;8.40;7.37;;;18.80;99.90;;;;;;5100768;28;20417;-62
2021/07/22 03:11:02;;;;;;;9.40;7.90;;;18.80;99.90;;;;;;5099501;28;20444;-62
2021/07/22 03:13:29;;;;;;;10.67;9.20;;;18.80;99.90;;;;;;5090542;28;20470;-62
2021/07/22 03:15:56;;;;;;;8.70;7.57;;;18.90;99.90;;;;;;5099387;28;20510;-62
2021/07/22 03:18:23;;;;;;;11.33;8.10;;;18.80;99.90;;;;;;5092384;28;20484;-63
2021/07/22 03:20:50;;;;;;;7.30;6.60;;;18.90;99.90;;;;;;5093592;28;20650;-63
2021/07/22 03:23:17;;;;;;;8.13;7.20;;;18.90;99.90;;;;;;5099373;28;20464;-63
2021/07/22 03:25:45;;;;;;;10.90;7.83;;;18.80;99.90;;;;;;5099040;28;20451;-63
2021/07/22 03:28:12;;;;;;;9.63;7.33;;;18.80;99.90;;;;;;5098999;28;20588;-63
2021/07/22 03:30:41;;;;;;;11.03;8.20;;;18.70;99.90;;;;;;5099097;28;20417;-64
2021/07/22 03:33:08;;;;;;;12.37;8.97;;;18.70;99.90;;;;;;5099154;28;20434;-63
2021/07/22 03:35:37;;;;;;;10.03;7.70;;;18.50;99.90;;;;;;5098054;28;20483;-62
2021/07/22 03:38:04;;;;;;;14.03;8.90;;;18.50;99.90;;;;;;5080781;28;20446;-64
2021/07/22 03:40:31;;;;;;;10.00;7.93;;;18.60;99.90;;;;;;5099615;28;20435;-63
2021/07/22 03:42:59;;;;;;;14.23;8.33;;;18.60;99.90;;;;;;5098975;28;20438;-63
2021/07/22 03:45:26;;;;;;;9.87;7.47;;;18.50;99.90;;;;;;5098720;28;20413;-62
2021/07/22 03:47:53;;;;;;;8.40;7.53;;;18.30;99.90;;;;;;5098722;28;20426;-62
2021/07/22 03:50:20;;;;;;;9.80;8.80;;;18.40;99.90;;;;;;5098460;28;20442;-64
2021/07/22 03:52:53;;;;;;;13.57;8.60;;;18.30;99.90;;;;;;5105338;28;20755;-63
2021/07/22 03:55:23;;;;;;;10.97;8.63;;;18.50;99.90;;;;;;5104987;28;20814;-63
2021/07/22 03:57:50;;;;;;;11.30;9.60;;;18.60;99.90;;;;;;5084740;28;20449;-63
2021/07/22 04:00:17;;;;;;;10.70;9.03;;;18.50;99.90;;;;;;5098369;28;20477;-62
2021/07/22 04:02:44;;;;;;;9.90;8.73;;;18.50;99.90;;;;;;5097172;28;20518;-62
2021/07/22 04:05:11;;;;;;;10.40;9.10;;;18.50;99.90;;;;;;5098473;28;20506;-63
2021/07/22 04:07:38;;;;;;;15.47;8.23;;;18.70;99.90;;;;;;5101361;28;20435;-62
2021/07/22 04:10:06;;;;;;;11.57;8.83;;;18.80;99.90;;;;;;5099818;28;20446;-62
2021/07/22 04:12:33;;;;;;;14.97;8.87;;;18.80;99.90;;;;;;5098562;28;20444;-62
2021/07/22 04:15:00;;;;;;;12.87;9.00;;;18.90;99.90;;;;;;5097905;28;20560;-62
2021/07/22 04:17:29;;;;;;;11.10;8.57;;;19.00;99.90;;;;;;5098174;28;20510;-62
2021/07/22 04:19:56;;;;;;;11.80;7.97;;;19.10;99.90;;;;;;5097416;28;20596;-62
2021/07/22 04:22:23;;;;;;;10.33;8.30;;;19.10;99.90;;;;;;5093436;28;20538;-63
2021/07/22 04:24:50;;;;;;;10.90;9.30;;;19.00;99.90;;;;;;5088776;28;20425;-63
2021/07/22 04:27:19;;;;;;;14.47;9.27;;;19.10;99.90;;;;;;5092809;28;20761;-63
2021/07/22 04:29:47;;;;;;;10.37;8.40;;;19.00;99.90;;;;;;5089954;28;20426;-63
2021/07/22 04:32:14;;;;;;;13.67;9.60;;;19.20;99.90;;;;;;5095647;28;20546;-63
2021/07/22 04:34:41;;;;;;;10.43;9.10;;;19.20;99.90;;;;;;5090342;28;20729;-63
2021/07/22 04:37:08;;;;;;;11.13;9.13;;;19.30;99.90;;;;;;5090442;28;20417;-63
2021/07/22 04:39:35;;;;;;;11.90;9.10;;;19.40;99.90;;;;;;5097511;28;20490;-63
2021/07/22 04:42:02;;;;;;;8.93;7.97;;;19.40;99.90;;;;;;5098797;28;20459;-63
2021/07/22 04:44:31;;;;;;;10.27;8.97;;;19.50;99.90;;;;;;5097051;28;20421;-63
2021/07/22 04:46:59;;;;;;;11.80;9.30;;;19.40;99.90;;;;;;5096931;28;20414;-63
2021/07/22 04:49:26;;;;;;;9.70;8.40;;;19.40;99.90;;;;;;5098334;28;20470;-63
2021/07/22 04:51:53;;;;;;;14.60;10.50;;;19.50;99.90;;;;;;5097897;28;20420;-63
2021/07/22 04:54:20;;;;;;;15.87;10.30;;;19.60;99.90;;;;;;5117674;28;20448;-63
2021/07/22 04:56:47;;;;;;;18.63;8.00;;;19.70;99.90;;;;;;5105919;28;20446;-63
2021/07/22 04:59:14;;;;;;;8.63;7.00;;;19.80;99.90;;;;;;5109742;28;20480;-63
2021/07/22 05:01:41;;;;;;;12.10;7.97;;;19.90;99.90;;;;;;5087037;28;20443;-63
2021/07/22 05:04:08;;;;;;;10.67;9.17;;;19.90;99.90;;;;;;5096428;28;20480;-63
2021/07/22 05:06:35;;;;;;;10.60;7.93;;;19.90;99.90;;;;;;5097604;28;20508;-63
2021/07/22 05:09:02;;;;;;;8.13;7.30;;;20.00;99.90;;;;;;5096312;28;20448;-64
2021/07/22 05:11:30;;;;;;;13.13;9.40;;;20.10;99.90;;;;;;5086891;28;20744;-63
2021/07/22 05:13:57;;;;;;;17.00;8.50;;;20.20;99.90;;;;;;5087799;28;20501;-63
2021/07/22 05:16:24;;;;;;;10.13;8.27;;;20.30;99.90;;;;;;5096085;28;20468;-63
2021/07/22 05:18:52;;;;;;;9.67;8.67;;;20.30;99.90;;;;;;5096982;28;20465;-62
2021/07/22 05:21:19;;;;;;;11.57;9.70;;;20.30;99.90;;;;;;5097041;28;20452;-62
2021/07/22 05:23:46;;;;;;;9.43;8.20;;;20.40;99.90;;;;;;5096572;28;20782;-63
2021/07/22 05:26:13;;;;;;;12.07;8.63;;;20.50;99.90;;;;;;5096574;28;20452;-63
2021/07/22 05:28:40;;;;;;;10.07;7.63;;;20.20;99.90;;;;;;5096558;28;20640;-62
2021/07/22 05:31:10;;;;;;;11.63;8.90;;;20.20;99.90;;;;;;5096197;28;20469;-62
2021/07/22 05:33:38;;;;;;;12.60;8.10;;;20.30;99.90;;;;;;5096122;28;20416;-63
2021/07/22 05:36:07;;;;;;;19.70;8.27;;;20.20;99.90;;;;;;5090616;28;20760;-63
2021/07/22 05:38:36;;;;;;;12.23;8.77;;;20.20;99.90;;;;;;5091350;28;20417;-63
2021/07/22 05:41:09;;;;;;;10.70;8.77;;;20.20;99.90;;;;;;5096867;28;20469;-63
2021/07/22 05:43:36;;;;;;;10.87;8.57;;;20.20;99.90;;;;;;5095763;28;20955;-63
2021/07/22 05:46:04;;;;;;;14.47;9.40;;;20.00;99.90;;;;;;5095260;28;20452;-64
2021/07/22 05:48:31;;;;;;;12.87;10.00;;;20.10;99.90;;;;;;5096369;28;20414;-62
2021/07/22 05:51:03;;;;;;;11.80;10.43;;;20.10;99.90;;;;;;5096191;28;20417;-63
2021/07/22 05:53:30;;;;;;;8.60;7.80;;;20.30;99.90;;;;;;5109587;28;20736;-62
2021/07/22 05:56:00;;;;;;;11.50;8.70;;;20.30;99.90;;;;;;5111942;28;20443;-62
2021/07/22 05:58:27;;;;;;;11.00;8.67;;;20.50;99.90;;;;;;5096667;28;20484;-62
2021/07/22 06:00:58;;;;;;;9.30;8.33;;;20.60;99.90;;;;;;5088199;28;20587;-62
2021/07/22 06:03:25;;;;;;;11.60;8.40;;;20.30;99.90;;;;;;5106060;28;20537;-63
2021/07/22 06:05:53;;;;;;;13.20;10.17;;;20.20;99.90;;;;;;5096216;28;20451;-63
2021/07/22 06:08:20;;;;;;;13.93;8.97;;;20.10;99.90;;;;;;5091404;28;20502;-63
2021/07/22 06:10:47;;;;;;;10.43;9.20;;;20.30;99.90;;;;;;5095750;28;20417;-63
2021/07/22 06:13:14;;;;;;;13.53;7.93;;;20.30;99.90;;;;;;5095681;28;20551;-63
2021/07/22 06:15:41;;;;;;;11.20;9.00;;;20.40;99.90;;;;;;5104476;28;20738;-64
2021/07/22 06:18:08;;;;;;;11.27;10.00;;;20.30;99.90;;;;;;5090941;28;20471;-63
2021/07/22 06:20:35;;;;;;;11.23;9.97;;;20.50;99.90;;;;;;5096708;28;20540;-62
2021/07/22 06:23:02;;;;;;;11.77;9.30;;;20.60;99.90;;;;;;5099952;28;20428;-62
2021/07/22 06:25:29;;;;;;;13.40;9.97;;;20.70;99.90;;;;;;5104809;28;20509;-62
2021/07/22 06:27:57;;;;;;;11.33;8.63;;;20.80;99.90;;;;;;5104471;28;20519;-62
2021/07/22 06:30:24;;;;;;;10.70;8.90;;;20.80;99.90;;;;;;5099946;28;20456;-62
2021/07/22 06:32:51;;;;;;;11.50;9.27;;;21.00;99.90;;;;;;5102646;28;20429;-63
2021/07/22 06:35:18;;;;;;;12.37;9.97;;;21.20;99.90;;;;;;5108146;28;20469;-63
2021/07/22 06:37:47;;;;;;;12.47;10.90;;;21.20;99.90;;;;;;5080525;28;20410;-63
2021/07/22 06:40:14;;;;;;;9.33;8.30;;;21.20;99.90;;;;;;5102666;28;20519;-63
2021/07/22 06:42:42;;;;;;;11.90;9.10;;;21.40;99.90;;;;;;5100302;28;20413;-63
2021/07/22 06:45:10;;;;;;;10.80;8.87;;;21.30;99.90;;;;;;5100274;28;20414;-64
2021/07/22 06:47:40;;;;;;;14.97;9.30;;;21.30;99.90;;;;;;5099804;28;20431;-62
2021/07/22 06:50:09;;;;;;;12.60;9.50;;;21.40;99.90;;;;;;5104615;28;20422;-63
2021/07/22 06:52:39;;;;;;;11.70;9.60;;;21.40;99.90;;;;;;5103180;28;20746;-62
2021/07/22 06:55:07;;;;;;;22.30;9.80;;;21.50;99.90;;;;;;5107786;28;20424;-63
2021/07/22 06:57:34;;;;;;;11.70;10.17;;;21.50;99.90;;;;;;5099711;28;20523;-62
2021/07/22 07:00:03;;;;;;;17.37;10.63;;;21.50;99.90;;;;;;5091369;28;20471;-63
2021/07/22 07:02:30;;;;;;;12.93;10.03;;;21.40;99.90;;;;;;5096497;28;20543;-63
2021/07/22 07:04:58;;;;;;;15.83;10.10;;;21.40;99.90;;;;;;5099961;28;20425;-62
2021/07/22 07:07:25;;;;;;;11.80;9.57;;;21.90;99.90;;;;;;5099291;28;20468;-63
2021/07/22 07:09:53;;;;;;;17.20;9.93;;;22.10;99.90;;;;;;5099482;28;20460;-62
2021/07/22 07:12:20;;;;;;;13.00;10.90;;;22.20;99.90;;;;;;5099354;28;20528;-64
2021/07/22 07:14:48;;;;;;;12.83;9.43;;;22.20;99.90;;;;;;5099214;28;20446;-63
2021/07/22 07:17:15;;;;;;;14.97;10.20;;;22.40;99.90;;;;;;5091848;28;20439;-63
2021/07/22 07:19:43;;;;;;;14.70;9.07;;;22.60;99.90;;;;;;5097797;28;20463;-62
2021/07/22 07:22:11;;;;;;;12.23;8.90;;;22.70;99.90;;;;;;5098926;28;20481;-62
2021/07/22 07:24:38;;;;;;;12.00;9.53;;;22.80;99.90;;;;;;5098844;28;20435;-62
2021/07/22 07:27:06;;;;;;;11.23;8.83;;;23.10;99.90;;;;;;5098734;28;20517;-62
2021/07/22 07:29:33;;;;;;;13.53;9.60;;;23.20;99.90;;;;;;5097818;28;20867;-62
2021/07/22 07:32:01;;;;;;;12.10;9.40;;;23.30;99.90;;;;;;5098240;28;22001;-62
2021/07/22 07:34:28;;;;;;;10.50;9.33;;;23.80;99.90;;;;;;5106916;28;20840;-62
2021/07/22 07:36:56;;;;;;;15.13;10.43;;;23.90;99.90;;;;;;5096213;28;20754;-62
2021/07/22 07:39:23;;;;;;;11.30;9.63;;;23.90;99.90;;;;;;5112507;28;20760;-62
2021/07/22 07:41:50;;;;;;;12.90;10.73;;;23.90;99.90;;;;;;5109060;28;20596;-62
2021/07/22 07:44:17;;;;;;;11.30;9.47;;;24.10;99.90;;;;;;5106914;28;20748;-62
2021/07/22 07:46:44;;;;;;;12.57;10.07;;;24.20;99.90;;;;;;5110043;28;20518;-63
2021/07/22 07:49:11;;;;;;;13.20;11.23;;;24.40;99.90;;;;;;5113565;28;20506;-63
2021/07/22 07:51:38;;;;;;;12.13;10.57;;;24.30;99.90;;;;;;5108525;28;20687;-62
2021/07/22 07:54:05;;;;;;;12.63;10.77;;;24.20;99.90;;;;;;5116741;28;20418;-62
2021/07/22 07:56:32;;;;;;;10.50;9.30;;;24.20;99.90;;;;;;5114352;28;20822;-62
2021/07/22 07:58:59;;;;;;;16.80;10.33;;;24.20;99.90;;;;;;5097976;28;20438;-62
2021/07/22 08:01:29;;;;;;;11.07;9.47;;;24.40;99.90;;;;;;5116728;28;20464;-62
2021/07/22 08:03:57;;;;;;;10.50;9.50;;;24.60;99.90;;;;;;5116504;28;20499;-62
2021/07/22 08:06:24;;;;;;;9.37;8.57;;;24.80;99.90;;;;;;5113501;28;20461;-64
2021/07/22 08:08:51;;;;;;;12.63;9.83;;;24.90;99.90;;;;;;5115309;28;20487;-63
2021/07/22 08:11:18;;;;;;;9.80;8.80;;;24.90;99.90;;;;;;5106964;28;20470;-64
2021/07/22 08:13:45;;;;;;;9.37;8.03;;;25.00;99.90;;;;;;5111142;28;20525;-64
2021/07/22 08:16:17;;;;;;;11.27;10.07;;;25.10;99.90;;;;;;5111855;28;20527;-62
2021/07/22 08:18:49;;;;;;;18.43;9.40;;;24.80;99.90;;;;;;5113755;28;20419;-63
2021/07/22 08:21:16;;;;;;;8.83;8.03;;;24.90;99.90;;;;;;5116013;28;20491;-62
2021/07/22 08:23:43;;;;;;;10.07;9.10;;;24.80;99.80;;;;;;5111481;28;20417;-62
2021/07/22 08:26:10;;;;;;;8.77;7.83;;;25.10;99.90;;;;;;5109603;28;20458;-62
2021/07/22 08:28:37;;;;;;;9.30;8.37;;;25.60;99.70;;;;;;5108354;28;20461;-62
2021/07/22 08:31:04;;;;;;;12.00;7.83;;;26.00;99.30;;;;;;5112644;28;20461;-63
2021/07/22 08:33:31;;;;;;;9.57;8.73;;;26.00;98.60;;;;;;5110538;28;20521;-64
2021/07/22 08:35:59;;;;;;;9.07;8.30;;;25.80;98.20;;;;;;5107833;28;20408;-63
2021/07/22 08:38:28;;;;;;;10.37;9.10;;;25.90;98.80;;;;;;5115600;28;20475;-63
2021/07/22 08:40:57;;;;;;;9.63;8.70;;;26.00;98.50;;;;;;5111047;28;20530;-63
2021/07/22 08:43:26;;;;;;;8.80;8.00;;;26.20;98.90;;;;;;5108511;28;20955;-61
2021/07/22 08:45:55;;;;;;;8.20;7.50;;;26.30;97.90;;;;;;5108841;28;20778;-63
2021/07/22 08:48:22;;;;;;;7.70;7.20;;;26.60;96.60;;;;;;5108009;28;20492;-62
2021/07/22 08:50:49;;;;;;;9.80;9.00;;;26.90;96.70;;;;;;5110944;28;20475;-64
2021/07/22 08:53:16;;;;;;;8.57;7.87;;;27.10;95.50;;;;;;5116347;28;20438;-61
2021/07/22 08:55:45;;;;;;;8.27;7.57;;;27.20;95.80;;;;;;5108916;28;20442;-62
2021/07/22 08:58:12;;;;;;;9.57;8.70;;;27.30;95.70;;;;;;5112007;28;20446;-63
2021/07/22 09:00:40;;;;;;;9.27;8.57;;;27.40;94.70;;;;;;5105040;28;20519;-61
2021/07/22 09:03:13;;;;;;;8.63;7.97;;;26.90;95.10;;;;;;5090513;28;20778;-63
2021/07/22 09:05:41;;;;;;;8.20;7.60;;;27.20;94.70;;;;;;5114222;28;20758;-62
2021/07/22 09:08:08;;;;;;;8.40;7.83;;;27.10;94.20;;;;;;5110769;28;20464;-64
2021/07/22 09:10:36;;;;;;;8.23;7.70;;;27.30;92.90;;;;;;5110071;28;20611;-63
2021/07/22 09:13:03;;;;;;;7.60;7.10;;;27.10;93.20;;;;;;5103735;28;20494;-62
2021/07/22 09:15:35;;;;;;;9.40;8.60;;;27.10;93.50;;;;;;5112588;28;20461;-62
2021/07/22 09:18:25;;;;;;;8.37;7.77;;;26.70;93.80;;;;;;5109514;28;20434;-63
2021/07/22 09:20:54;;;;;;;8.70;8.00;;;26.10;95.10;;;;;;5111896;28;20458;-64
2021/07/22 09:23:27;;;;;;;8.80;7.40;;;26.70;94.30;;;;;;5105431;28;20416;-62
2021/07/22 09:25:55;;;;;;;9.57;8.73;;;26.70;94.30;;;;;;5109551;28;20523;-63
2021/07/22 09:28:24;;;;;;;9.10;8.30;;;27.30;93.20;;;;;;5108081;28;20440;-62
2021/07/22 09:30:59;;;;;;;8.47;7.87;;;27.40;92.30;;;;;;5110205;28;20454;-63
2021/07/22 09:33:40;;;;;;;8.83;8.13;;;27.20;92.80;;;;;;5112779;28;20475;-62
2021/07/22 09:36:31;;;;;;;8.90;8.00;;;27.00;92.90;;;;;;5079387;28;20485;-64
2021/07/22 09:39:23;;;;;;;8.87;8.20;;;27.60;92.00;;;;;;5112935;28;20472;-62
2021/07/22 09:42:01;;;;;;;9.10;8.33;;;28.30;90.70;;;;;;5105573;28;20482;-62
2021/07/22 09:44:39;;;;;;;9.23;8.43;;;28.40;90.00;;;;;;5110139;28;20455;-62
2021/07/22 09:47:10;;;;;;;9.10;8.30;;;28.20;90.80;;;;;;5109047;28;20548;-63
2021/07/22 09:49:42;;;;;;;9.73;8.80;;;27.70;91.50;;;;;;5111290;28;20639;-64
2021/07/22 09:52:21;;;;;;;9.67;8.70;;;27.70;91.10;;;;;;5108625;28;20437;-62
2021/07/22 09:54:48;;;;;;;10.03;9.13;;;28.00;91.60;;;;;;5107676;28;20741;-62
2021/07/22 09:57:17;;;;;;;9.47;8.80;;;27.50;91.50;;;;;;5113103;28;20440;-62
2021/07/22 09:59:50;;;;;;;10.57;9.10;;;27.10;91.10;;;;;;5115282;28;20401;-64
2021/07/22 10:02:21;;;;;;;9.87;9.17;;;26.70;91.80;;;;;;5098054;28;20477;-62
2021/07/22 10:04:57;;;;;;;10.83;9.80;;;27.10;91.50;;;;;;5099630;28;20787;-61
2021/07/22 10:07:25;;;;;;;9.03;8.43;;;27.20;91.70;;;;;;5113728;28;20438;-64
2021/07/22 10:09:55;;;;;;;8.70;8.00;;;27.00;91.70;;;;;;5109028;28;20446;-61
2021/07/22 10:12:23;;;;;;;7.70;7.20;;;26.70;92.20;;;;;;5108812;28;20471;-65
2021/07/22 10:14:55;;;;;;;8.40;7.80;;;26.00;92.90;;;;;;5108407;28;20430;-62
2021/07/22 10:17:30;;;;;;;19.77;9.20;;;25.90;93.00;;;;;;5107079;28;20424;-61
2021/07/22 10:19:58;;;;;;;9.83;8.90;;;25.90;93.20;;;;;;5112092;28;20412;-62
2021/07/22 10:22:26;;;;;;;8.97;8.27;;;25.70;93.50;;;;;;5115795;28;20470;-64
2021/07/22 10:24:54;;;;;;;9.10;8.30;;;25.80;93.40;;;;;;5105734;28;20442;-63
2021/07/22 10:27:23;;;;;;;8.33;7.63;;;25.40;93.60;;;;;;5107108;28;20498;-63
2021/07/22 10:29:51;;;;;;;9.23;8.53;;;25.40;94.10;;;;;;5108014;28;20692;-63
2021/07/22 10:32:22;;;;;;;7.90;7.10;;;25.20;94.50;;;;;;5108772;28;20751;-64
2021/07/22 10:34:51;;;;;;;7.70;7.20;;;25.20;94.10;;;;;;5094265;28;20414;-62
2021/07/22 10:37:20;;;;;;;8.60;7.90;;;25.40;94.60;;;;;;5107747;28;20442;-63
2021/07/22 10:39:59;;;;;;;7.70;7.00;;;25.30;94.60;;;;;;5108953;28;20611;-64
2021/07/22 10:42:48;;;;;;;8.60;7.83;;;25.70;94.50;;;;;;5107255;28;20441;-63
2021/07/22 10:45:18;;;;;;;8.00;7.50;;;25.50;93.70;;;;;;5107759;28;20444;-63
2021/07/22 10:48:04;;;;;;;9.20;8.50;;;26.10;93.80;;;;;;5106926;28;20441;-63
2021/07/22 10:50:37;;;;;;;9.53;8.77;;;26.60;93.70;;;;;;5092698;28;20504;-63
2021/07/22 10:53:05;;;;;;;9.50;8.70;;;26.50;93.30;;;;;;5110229;28;20784;-63
2021/07/22 10:55:41;;;;;;;9.07;8.37;;;26.40;92.80;;;;;;5113279;28;20668;-63
2021/07/22 10:58:23;;;;;;;10.30;9.23;;;25.50;93.30;;;;;;5111545;28;20408;-63
2021/07/22 11:00:51;;;;;;;9.23;8.50;;;25.10;94.20;;;;;;5112726;28;20518;-63
2021/07/22 11:03:34;;;;;;;9.90;8.83;;;24.70;95.10;;;;;;5115164;28;20412;-63
2021/07/22 11:06:03;;;;;;;8.47;7.80;;;24.60;95.60;;;;;;5110215;28;20443;-63
2021/07/22 11:08:32;;;;;;;9.07;8.10;;;24.50;95.40;;;;;;5114062;28;20614;-63
2021/07/22 11:11:06;;;;;;;8.63;7.90;;;24.60;95.50;;;;;;5111195;28;20454;-63
2021/07/22 11:13:40;;;;;;;8.57;7.90;;;24.60;95.80;;;;;;5111450;28;20793;-63
2021/07/22 11:16:19;;;;;;;9.60;8.60;;;24.70;95.80;;;;;;5111995;28;20910;-63
2021/07/22 11:18:52;;;;;;;8.57;7.87;;;24.80;96.30;;;;;;5112393;28;20751;-63
2021/07/22 11:21:33;;;;;;;8.33;7.73;;;24.90;95.70;;;;;;5115566;28;20503;-63
2021/07/22 11:24:02;;;;;;;8.67;7.77;;;24.80;95.70;;;;;;5112861;28;20430;-63
2021/07/22 11:26:40;;;;;;;8.27;7.70;;;24.80;95.70;;;;;;5108453;28;20415;-63
2021/07/22 11:29:13;;;;;;;9.30;8.50;;;24.70;96.00;;;;;;5109833;28;20413;-63
2021/07/22 11:31:41;;;;;;;8.63;7.93;;;24.50;96.00;;;;;;5110411;28;20537;-63
2021/07/22 11:34:08;;;;;;;10.17;9.37;;;24.50;96.00;;;;;;5111170;28;20409;-63
2021/07/22 11:36:36;;;;;;;9.30;8.60;;;24.30;96.80;;;;;;5112703;28;20422;-63
2021/07/22 11:39:05;;;;;;;7.27;6.77;;;23.90;97.20;;;;;;5115637;28;20434;-65
2021/07/22 11:41:32;;;;;;;8.60;7.80;;;23.90;97.20;;;;;;5113714;28;20453;-63
2021/07/22 11:44:01;;;;;;;8.63;7.93;;;24.10;97.60;;;;;;5112646;28;20438;-65
2021/07/22 11:46:40;;;;;;;8.57;7.77;;;24.10;97.50;;;;;;5110460;28;20442;-64
2021/07/22 11:49:12;;;;;;;7.83;7.03;;;24.00;97.70;;;;;;5107168;28;20455;-64
2021/07/22 11:51:42;;;;;;;8.87;8.10;;;23.90;97.70;;;;;;5112559;28;20421;-63
2021/07/22 11:54:11;;;;;;;8.40;7.57;;;23.80;98.40;;;;;;5116012;28;20589;-63
2021/07/22 11:56:39;;;;;;;6.60;6.20;;;23.90;97.80;;;;;;5117060;28;20445;-63
2021/07/22 11:59:09;;;;;;;7.90;6.73;;;23.80;98.00;;;;;;5112388;28;20409;-65
2021/07/22 12:01:50;;;;;;;9.30;7.13;;;24.00;97.80;;;;;;5113694;28;20474;-63
2021/07/22 12:04:26;;;;;;;8.50;7.80;;;23.90;97.80;;;;;;5115730;28;20435;-64
2021/07/22 12:06:55;;;;;;;9.53;7.63;;;23.80;98.00;;;;;;5118537;28;20803;-63
2021/07/22 12:09:22;;;;;;;8.70;7.80;;;23.60;98.30;;;;;;5105157;28;20460;-63
2021/07/22 12:11:53;;;;;;;8.57;7.77;;;23.60;98.40;;;;;;5113474;28;20829;-62
2021/07/22 12:14:30;;;;;;;8.50;7.47;;;23.60;97.90;;;;;;5102953;28;20497;-64
2021/07/22 12:17:10;;;;;;;8.20;7.40;;;23.60;97.70;;;;;;5080666;28;21040;-64
2021/07/22 12:19:48;;;;;;;8.27;7.57;;;23.60;97.70;;;;;;5109978;28;20438;-63
2021/07/22 12:22:22;;;;;;;8.33;7.63;;;23.50;97.70;;;;;;5113637;28;20874;-63
2021/07/22 12:25:01;;;;;;;7.80;7.07;;;23.70;97.40;;;;;;5090420;28;20439;-63
2021/07/22 12:27:35;;;;;;;10.80;8.30;;;23.70;97.30;;;;;;5108784;28;20434;-63
2021/07/22 12:30:08;;;;;;;8.03;7.50;;;23.50;97.20;;;;;;5107165;28;20725;-63
2021/07/22 12:32:35;;;;;;;8.60;8.00;;;23.50;97.30;;;;;;5108222;28;20445;-63
2021/07/22 12:35:03;;;;;;;8.43;7.83;;;23.50;97.60;;;;;;5110673;28;20760;-61
2021/07/22 12:37:54;;;;;;;7.90;7.30;;;23.50;97.20;;;;;;5109293;28;20622;-60
2021/07/22 12:40:42;;;;;;;8.37;7.47;;;23.70;96.70;;;;;;5115042;28;20470;-61
2021/07/22 12:43:14;;;;;;;8.33;7.63;;;23.80;96.30;;;;;;5104270;28;20769;-62
2021/07/22 12:45:43;;;;;;;7.67;7.17;;;23.60;95.70;;;;;;5110081;28;20542;-60
2021/07/22 12:48:13;;;;;;;8.20;7.70;;;23.60;96.20;;;;;;5108827;28;20533;-61
2021/07/22 12:50:50;;;;;;;8.50;7.90;;;23.70;96.40;;;;;;5110528;28;20767;-61